Airfield :







YOU CAN JOIN US ON...

 
LOGIN :

Register | Disclaimer

   EN    FR    IT 

 









Legend :    VFR   Marginal VFR   IFR   Intensive IFR   Very Intensive IFR
Visi :
Ceiling :
>= 8 km
>= 3000ft
5 to 8 km
1000 to 3000 ft
1500m to 5 km
500 to 1000 ft
800 to 1500m
200 to 500 ft
< 800m
< 200 ft
Symbols :   Thunderstorms  Fog  Heavy snow  Heavy precipitations  Wind > 20 kt






- Airport Elevation : 1808 ft
- IATA code : YWK


CYWK - Wabush

CURRENT METAR :
  • 090749Z AUTO 16003KT 3/4SM BR CLR 02/02 A3004 RMK SLP200

EXPIRED METARs :
  • 090743Z AUTO VRB02KT 1 3/4SM BR CLR 02/02 A3004 RMK VIS VRB 5/8-3 SLP200
  • 090734Z AUTO 00000KT 3SM BR CLR 02/02 A3004 RMK SLP199
  • 090712Z AUTO 00000KT 3/4SM BR CLR 02/02 A3003 RMK SLP198
  • 090657Z AUTO 00000KT 1 1/2SM BR CLR 03/02 A3004 RMK SLP198
  • 090656Z AUTO 00000KT 2SM BR CLR 03/02 A3004 RMK SLP198
  • 090600Z AUTO 19002KT 9SM BKN230 BKN250 05/05 A3003 RMK SLP187
  • 090500Z AUTO VRB02KT 9SM BKN240 05/05 A3003 RMK SLP185

TAF TAF CYWK
Valid from the 09 at 08:00 until the 09 at 20:00 UTC


090740Z 0908/0920 VRB03KT P6SM SKC
TEMPO 0908/0911 3/4SM BR
FM091700 25006KT P6SM FEW050 RMK FCST BASED ON AUTO OBS. NXT FCST BY 091400Z
CZUL FIR / North America



MET'MAP, your aeronautical weather chart ! - Copyright ORBIFLY December 2007 - Disclaimer

ORBIFLY MET'MAP TEAM :

Programming & Development : Alexandra Zaïnal
Original concept : Baudouin d'Aumeries
Technical & hardware support : Manuel Goepfert
Assistance : Marc-Olivier Méhu




SOURCES & CREDITS :

   NOAA